首页
METAR-TAF:

METAR-TAF

机场 :

关西国际机场, 日本

纬度: 34-25N, 经度: 135-15E, 海拔: 5米

当前天气观测

该预报发布于35分钟前的09:00 UTC
风速5节,风向南转西南
温度 11°C
湿度 54%
气压 1021 hPa
能见度10公里或以上
少量云层高于2000英尺
多云

METAR: RJBB 040900Z 21005KT 9999 FEW020 BKN/// 11/02 Q1021 NOSIG

时间: 18:35 (09:35 UTC)

预报

该预报发布于4小时和30分钟前的05:05 UTC
预报有效从04日的 06点(UTC)到 05日的 12点(UTC)
风速5节,风向西南
能见度10公里或以上
少量云层高于3000英尺
成为
从 04日的 09点(UTC)到 04日的 11点(UTC)
风速15节,风向东转东北
短暂存在
从 05日的 03点(UTC)到 05日的 12点(UTC)
能見度: 4000
雨, 轻雾,

TAF: RJBB 040505Z 0406/0512 23005KT 9999 FEW030 BECMG 0409/0411 07015KT TEMPO 0503/0512 4000 RA BR

超过4000个机场的气象观测和天气预报(METAR&TAF报告)。

可查询的气象台以黄色和红色小点在地图上表示。

将鼠标移到小点上方,可查看气象台名称。

然后点击查看天气观测和预报。

如需切换地图:点击带黑十字的绿色按钮放大地图;点击带横线的绿色按钮缩小地图;或者点击绿色箭头查看邻近地区的地图。


METAR-TAF: